Time;durP1;ratioP1;P1;durP2;ratioP2;P2;SDS_P1;SDS_P2;PMS_P1;PMS_P2;Temp;Humidity;BMP_temperature;BMP_pressure;BME280_temperature;BME280_humidity;BME280_pressure;Samples;Min_cycle;Max_cycle;Signal;HPM_P1;HPM_P2
2023/09/26 00:01:55;;;;;;;19.05;3.83;;;;;;;;;;5022148;28;20029;-68
2023/09/26 00:04:21;;;;;;;11.57;3.08;;;;;;;;;;5019218;28;20158;-68
2023/09/26 00:06:48;;;;;;;20.58;4.30;;;;;;;;;;5012376;28;20021;-69
2023/09/26 00:09:15;;;;;;;8.85;3.60;;;;;;;;;;5018358;28;20029;-69
2023/09/26 00:11:42;;;;;;;12.45;4.13;;;;;;;;;;5023991;28;20079;-69
2023/09/26 00:14:08;;;;;;;18.58;4.22;;;;;;;;;;5019109;28;20497;-68
2023/09/26 00:16:34;;;;;;;10.77;3.70;;;;;;;;;;5015699;28;20116;-69
2023/09/26 00:19:00;;;;;;;10.18;3.75;;;;;;;;;;5020969;28;20077;-68
2023/09/26 00:21:26;;;;;;;15.30;5.78;;;;;;;;;;5016504;28;20091;-68
2023/09/26 00:23:52;;;;;;;11.23;3.85;;;;;;;;;;5022710;28;20034;-68
2023/09/26 00:26:18;;;;;;;12.65;3.67;;;;;;;;;;5020049;28;20061;-69
2023/09/26 00:28:44;;;;;;;15.73;4.40;;;;;;;;;;5036293;28;20035;-69
2023/09/26 00:31:10;;;;;;;5.90;3.10;;;;;;;;;;5021967;28;20033;-68
2023/09/26 00:33:36;;;;;;;9.10;4.78;;;;;;;;;;5027997;28;20056;-68
2023/09/26 00:36:07;;;;;;;11.48;3.70;;;;;;;;;;5016265;28;20157;-68
2023/09/26 00:38:33;;;;;;;13.02;4.10;;;;;;;;;;5023647;28;20037;-69
2023/09/26 00:40:59;;;;;;;9.85;3.33;;;;;;;;;;5019855;28;20060;-69
2023/09/26 00:43:25;;;;;;;11.32;4.35;;;;;;;;;;5021437;28;20091;-68
2023/09/26 00:45:53;;;;;;;18.02;5.78;;;;;;;;;;5019179;28;20026;-69
2023/09/26 00:48:19;;;;;;;8.45;3.88;;;;;;;;;;5024218;28;20045;-68
2023/09/26 00:50:46;;;;;;;14.35;4.85;;;;;;;;;;5024023;28;20119;-68
2023/09/26 00:53:12;;;;;;;15.13;4.00;;;;;;;;;;5028082;28;20246;-69
2023/09/26 00:55:38;;;;;;;17.05;4.00;;;;;;;;;;5024546;28;20382;-69
2023/09/26 00:58:04;;;;;;;12.60;3.40;;;;;;;;;;5020474;28;20036;-69
2023/09/26 01:00:31;;;;;;;11.48;3.53;;;;;;;;;;5024508;28;20026;-69
2023/09/26 01:02:57;;;;;;;11.32;3.92;;;;;;;;;;5017524;28;20026;-72
2023/09/26 01:05:24;;;;;;;15.30;3.30;;;;;;;;;;5023183;28;20053;-70
2023/09/26 01:07:50;;;;;;;15.00;3.65;;;;;;;;;;5023422;28;20026;-69
2023/09/26 01:10:16;;;;;;;8.52;3.28;;;;;;;;;;5018714;28;20561;-68
2023/09/26 01:12:42;;;;;;;12.07;3.53;;;;;;;;;;5021313;28;20471;-68
2023/09/26 01:15:09;;;;;;;12.65;4.18;;;;;;;;;;5016769;28;20053;-69
2023/09/26 01:17:35;;;;;;;9.63;3.50;;;;;;;;;;5021216;28;20072;-68
2023/09/26 01:20:02;;;;;;;11.40;3.63;;;;;;;;;;5020040;28;20552;-70
2023/09/26 01:22:29;;;;;;;9.52;3.40;;;;;;;;;;5015709;28;20106;-71
2023/09/26 01:24:57;;;;;;;19.15;4.20;;;;;;;;;;5022982;28;20033;-69
2023/09/26 01:27:23;;;;;;;14.68;3.83;;;;;;;;;;5016393;28;20548;-68
2023/09/26 01:29:50;;;;;;;13.80;4.00;;;;;;;;;;5023652;28;20025;-70
2023/09/26 01:32:16;;;;;;;13.80;3.47;;;;;;;;;;5022884;28;20029;-68
2023/09/26 01:34:42;;;;;;;18.65;4.57;;;;;;;;;;5021381;28;20059;-69
2023/09/26 01:37:08;;;;;;;9.65;3.60;;;;;;;;;;5021093;28;20033;-69
2023/09/26 01:39:34;;;;;;;10.93;3.05;;;;;;;;;;5022223;28;20530;-68
2023/09/26 01:42:00;;;;;;;11.35;4.28;;;;;;;;;;5019578;28;20440;-69
2023/09/26 01:44:28;;;;;;;9.05;3.28;;;;;;;;;;5018399;28;20112;-70
2023/09/26 01:46:54;;;;;;;14.50;3.80;;;;;;;;;;5019615;28;20044;-70
2023/09/26 01:49:20;;;;;;;15.80;3.55;;;;;;;;;;5019500;28;20030;-69
2023/09/26 01:51:46;;;;;;;17.30;4.35;;;;;;;;;;5025987;28;20038;-69
2023/09/26 01:54:12;;;;;;;7.22;2.78;;;;;;;;;;5019283;28;20517;-69
2023/09/26 01:56:38;;;;;;;10.60;2.95;;;;;;;;;;5019843;28;20092;-69
2023/09/26 01:59:04;;;;;;;15.15;3.58;;;;;;;;;;5025059;28;20044;-69
2023/09/26 02:01:30;;;;;;;9.70;3.03;;;;;;;;;;5019515;28;20056;-69
2023/09/26 02:03:56;;;;;;;10.80;3.50;;;;;;;;;;5019999;28;20544;-69
2023/09/26 02:06:23;;;;;;;12.35;4.45;;;;;;;;;;5020549;28;20854;-69
2023/09/26 02:08:49;;;;;;;16.33;4.15;;;;;;;;;;5021770;28;20076;-69
2023/09/26 02:11:15;;;;;;;16.08;3.25;;;;;;;;;;5018416;28;20067;-69
2023/09/26 02:13:41;;;;;;;10.85;3.10;;;;;;;;;;5016824;28;20040;-68
2023/09/26 02:16:13;;;;;;;11.75;3.53;;;;;;;;;;5017902;28;20025;-69
2023/09/26 02:18:39;;;;;;;13.13;3.63;;;;;;;;;;5019292;28;20108;-69
2023/09/26 02:21:05;;;;;;;13.07;3.30;;;;;;;;;;5019847;28;20059;-69
2023/09/26 02:23:32;;;;;;;11.30;3.92;;;;;;;;;;5021151;28;20489;-69
2023/09/26 02:25:58;;;;;;;8.38;3.58;;;;;;;;;;5021872;28;20033;-69
2023/09/26 02:28:24;;;;;;;12.13;4.00;;;;;;;;;;5041855;28;20038;-70
2023/09/26 02:30:50;;;;;;;12.23;3.03;;;;;;;;;;5026594;28;20022;-69
2023/09/26 02:33:16;;;;;;;17.45;3.35;;;;;;;;;;5020357;28;20371;-70
2023/09/26 02:35:42;;;;;;;14.00;3.75;;;;;;;;;;5025815;28;20053;-69
2023/09/26 02:38:08;;;;;;;10.10;2.97;;;;;;;;;;5024010;28;20041;-69
2023/09/26 02:40:34;;;;;;;17.23;5.22;;;;;;;;;;5021422;28;20460;-69
2023/09/26 02:43:00;;;;;;;16.25;4.43;;;;;;;;;;5015243;28;20037;-69
2023/09/26 02:45:27;;;;;;;12.30;3.53;;;;;;;;;;5013204;28;20498;-69
2023/09/26 02:47:53;;;;;;;10.43;3.75;;;;;;;;;;5022876;28;20065;-69
2023/09/26 02:50:21;;;;;;;8.40;3.38;;;;;;;;;;5016128;28;20604;-68
2023/09/26 02:52:47;;;;;;;10.57;3.38;;;;;;;;;;5016564;28;20053;-69
2023/09/26 02:55:13;;;;;;;12.35;4.13;;;;;;;;;;5012383;28;20037;-69
2023/09/26 02:57:39;;;;;;;15.40;3.90;;;;;;;;;;5018992;28;20503;-69
2023/09/26 03:00:18;;;;;;;14.00;3.70;;;;;;;;;;5022209;28;20294;-69
2023/09/26 03:02:45;;;;;;;16.45;4.10;;;;;;;;;;5021600;28;20036;-68
2023/09/26 03:05:12;;;;;;;10.45;3.45;;;;;;;;;;5021098;28;20021;-69
2023/09/26 03:07:39;;;;;;;14.95;4.28;;;;;;;;;;5018025;28;20156;-68
2023/09/26 03:10:05;;;;;;;11.27;3.65;;;;;;;;;;5024842;28;20393;-69
2023/09/26 03:12:31;;;;;;;9.75;3.03;;;;;;;;;;5019313;28;20021;-69
2023/09/26 03:14:58;;;;;;;12.85;4.65;;;;;;;;;;5017827;28;20034;-69
2023/09/26 03:17:24;;;;;;;14.02;3.47;;;;;;;;;;5017980;28;20455;-69
2023/09/26 03:19:50;;;;;;;8.50;2.70;;;;;;;;;;5018633;28;20034;-69
2023/09/26 03:22:16;;;;;;;12.25;3.25;;;;;;;;;;5013024;28;20104;-70
2023/09/26 03:24:42;;;;;;;11.60;3.45;;;;;;;;;;5018809;28;20041;-70
2023/09/26 03:27:08;;;;;;;12.55;2.90;;;;;;;;;;5018085;28;20834;-69
2023/09/26 03:29:34;;;;;;;9.88;3.72;;;;;;;;;;5021652;28;20932;-70
2023/09/26 03:32:00;;;;;;;11.38;2.97;;;;;;;;;;5014903;28;20030;-70
2023/09/26 03:34:26;;;;;;;7.93;2.92;;;;;;;;;;5017705;28;20795;-69
2023/09/26 03:36:52;;;;;;;9.52;3.65;;;;;;;;;;5016603;28;20681;-69
2023/09/26 03:39:18;;;;;;;16.08;2.88;;;;;;;;;;5019653;28;20486;-69
2023/09/26 03:41:44;;;;;;;7.80;2.30;;;;;;;;;;5024680;28;20029;-70
2023/09/26 03:44:10;;;;;;;11.00;4.72;;;;;;;;;;5012853;28;20242;-70
2023/09/26 03:46:37;;;;;;;10.25;3.72;;;;;;;;;;5018718;28;20401;-69
2023/09/26 03:49:03;;;;;;;7.35;3.63;;;;;;;;;;5021704;28;20447;-69
2023/09/26 03:51:30;;;;;;;12.68;3.30;;;;;;;;;;5050034;28;20600;-69
2023/09/26 03:53:56;;;;;;;8.55;2.90;;;;;;;;;;5019490;28;20025;-69
2023/09/26 03:56:22;;;;;;;10.73;3.05;;;;;;;;;;5021820;28;20381;-69
2023/09/26 03:58:48;;;;;;;9.60;3.33;;;;;;;;;;5019356;28;20535;-69
2023/09/26 04:01:15;;;;;;;10.30;3.17;;;;;;;;;;5016966;28;20026;-69
2023/09/26 04:03:43;;;;;;;9.70;3.20;;;;;;;;;;5016359;28;20029;-70
2023/09/26 04:06:09;;;;;;;12.65;3.80;;;;;;;;;;5018195;28;20547;-69
2023/09/26 04:08:35;;;;;;;11.50;4.95;;;;;;;;;;5019262;28;20148;-69
2023/09/26 04:11:02;;;;;;;9.95;4.55;;;;;;;;;;5016847;28;20486;-69
2023/09/26 04:13:28;;;;;;;8.65;3.00;;;;;;;;;;5017930;28;20029;-69
2023/09/26 04:15:54;;;;;;;10.70;3.42;;;;;;;;;;5020698;28;20438;-69
2023/09/26 04:18:22;;;;;;;9.82;2.97;;;;;;;;;;5011198;28;20030;-69
2023/09/26 04:20:48;;;;;;;12.77;3.85;;;;;;;;;;5036705;28;20037;-68
2023/09/26 04:23:14;;;;;;;11.60;3.65;;;;;;;;;;5021282;28;20497;-69
2023/09/26 04:25:40;;;;;;;14.32;4.47;;;;;;;;;;5018797;28;20057;-69
2023/09/26 04:28:07;;;;;;;11.85;2.70;;;;;;;;;;5022114;28;20021;-69
2023/09/26 04:30:40;;;;;;;13.52;3.53;;;;;;;;;;5019261;28;20021;-69
2023/09/26 04:33:09;;;;;;;11.95;3.53;;;;;;;;;;5018328;28;20549;-69
2023/09/26 04:35:35;;;;;;;11.20;3.03;;;;;;;;;;5016877;28;20252;-69
2023/09/26 04:38:02;;;;;;;13.00;3.78;;;;;;;;;;5022528;28;20068;-69
2023/09/26 04:40:28;;;;;;;11.07;2.78;;;;;;;;;;5020451;28;20467;-70
2023/09/26 04:42:59;;;;;;;8.60;2.78;;;;;;;;;;5019049;28;20516;-69
2023/09/26 04:45:29;;;;;;;11.45;3.63;;;;;;;;;;5015764;28;20104;-69
2023/09/26 04:47:57;;;;;;;9.30;2.42;;;;;;;;;;5018235;28;20076;-69
2023/09/26 04:50:23;;;;;;;17.45;4.07;;;;;;;;;;5014609;28;20046;-69
2023/09/26 04:52:49;;;;;;;10.43;3.75;;;;;;;;;;5024712;28;20061;-69
2023/09/26 04:55:15;;;;;;;9.40;3.00;;;;;;;;;;5018892;28;20022;-69
2023/09/26 04:57:44;;;;;;;9.45;2.40;;;;;;;;;;5023083;28;20033;-69
2023/09/26 05:00:11;;;;;;;12.00;3.35;;;;;;;;;;5018811;28;20048;-68
2023/09/26 05:02:37;;;;;;;8.70;2.80;;;;;;;;;;5022842;28;20052;-69
2023/09/26 05:05:03;;;;;;;8.02;3.47;;;;;;;;;;5020180;28;20033;-69
2023/09/26 05:07:30;;;;;;;11.70;3.47;;;;;;;;;;5018738;28;20030;-69
2023/09/26 05:09:57;;;;;;;5.32;2.83;;;;;;;;;;5026483;28;20035;-70
2023/09/26 05:12:23;;;;;;;7.45;3.72;;;;;;;;;;5020101;28;20548;-69
2023/09/26 05:14:49;;;;;;;7.45;3.35;;;;;;;;;;5018099;28;20116;-69
2023/09/26 05:17:15;;;;;;;8.63;3.67;;;;;;;;;;5019225;28;20392;-70
2023/09/26 05:19:41;;;;;;;10.10;2.88;;;;;;;;;;5016774;28;20033;-69
2023/09/26 05:22:07;;;;;;;10.85;4.03;;;;;;;;;;5020828;28;20105;-69
2023/09/26 05:24:33;;;;;;;8.70;2.67;;;;;;;;;;5019271;28;20063;-70
2023/09/26 05:26:59;;;;;;;6.68;2.67;;;;;;;;;;5013831;28;20022;-69
2023/09/26 05:29:25;;;;;;;8.85;3.97;;;;;;;;;;5019847;28;20041;-69
2023/09/26 05:31:52;;;;;;;8.95;2.72;;;;;;;;;;5019305;28;20083;-69
2023/09/26 05:34:18;;;;;;;12.68;3.22;;;;;;;;;;5018060;28;20404;-68
2023/09/26 05:36:44;;;;;;;9.05;3.00;;;;;;;;;;5020695;28;20033;-69
2023/09/26 05:39:10;;;;;;;9.25;2.92;;;;;;;;;;5021681;28;20052;-69
2023/09/26 05:41:36;;;;;;;7.47;3.22;;;;;;;;;;5020635;28;20505;-69
2023/09/26 05:44:03;;;;;;;9.45;2.80;;;;;;;;;;5018888;28;20095;-69
2023/09/26 05:46:29;;;;;;;13.65;3.60;;;;;;;;;;5025836;28;20034;-70
2023/09/26 05:48:55;;;;;;;15.65;3.60;;;;;;;;;;5020405;28;20429;-70
2023/09/26 05:51:21;;;;;;;11.80;3.00;;;;;;;;;;5019014;28;20029;-72
2023/09/26 05:53:47;;;;;;;10.50;3.47;;;;;;;;;;5022824;28;20108;-68
2023/09/26 05:56:13;;;;;;;11.77;3.63;;;;;;;;;;5018714;28;20030;-68
2023/09/26 05:58:39;;;;;;;18.25;3.67;;;;;;;;;;5024339;28;20029;-68
2023/09/26 06:01:07;;;;;;;9.43;3.38;;;;;;;;;;5025321;28;20060;-67
2023/09/26 06:03:33;;;;;;;7.30;3.08;;;;;;;;;;5014441;28;20041;-67
2023/09/26 06:06:03;;;;;;;12.32;4.35;;;;;;;;;;5017166;28;20021;-67
2023/09/26 06:08:29;;;;;;;13.13;3.67;;;;;;;;;;5012617;28;20116;-68
2023/09/26 06:10:55;;;;;;;17.23;4.22;;;;;;;;;;5020886;28;20071;-69
2023/09/26 06:13:21;;;;;;;10.48;3.47;;;;;;;;;;5025844;28;20030;-69
2023/09/26 06:15:48;;;;;;;11.73;3.55;;;;;;;;;;5015182;28;20032;-68
2023/09/26 06:18:14;;;;;;;8.57;3.45;;;;;;;;;;5020831;28;20033;-72
2023/09/26 06:20:44;;;;;;;8.50;2.92;;;;;;;;;;5018577;28;20040;-68
2023/09/26 06:23:10;;;;;;;10.30;3.85;;;;;;;;;;5031511;28;20152;-70
2023/09/26 06:25:36;;;;;;;7.28;2.95;;;;;;;;;;5029640;28;20029;-66
2023/09/26 06:28:02;;;;;;;11.32;3.22;;;;;;;;;;5015735;28;20036;-65
2023/09/26 06:30:29;;;;;;;7.40;2.67;;;;;;;;;;5021897;28;20041;-67
2023/09/26 06:32:55;;;;;;;9.80;2.88;;;;;;;;;;5019709;28;20033;-66
2023/09/26 06:35:21;;;;;;;5.38;2.60;;;;;;;;;;5025534;28;20156;-68
2023/09/26 06:37:47;;;;;;;12.98;3.10;;;;;;;;;;5018008;28;20025;-66
2023/09/26 06:40:13;;;;;;;10.35;3.30;;;;;;;;;;5017287;28;20517;-67
2023/09/26 06:42:39;;;;;;;10.10;2.65;;;;;;;;;;5022469;28;20061;-67
2023/09/26 06:45:06;;;;;;;4.72;2.92;;;;;;;;;;5017769;28;20080;-67
2023/09/26 06:47:33;;;;;;;5.60;2.47;;;;;;;;;;5021791;28;20041;-65
2023/09/26 06:50:00;;;;;;;4.22;2.60;;;;;;;;;;5021007;28;20477;-67
2023/09/26 06:52:26;;;;;;;5.35;2.70;;;;;;;;;;5021292;28;20397;-67
2023/09/26 06:54:52;;;;;;;5.35;2.60;;;;;;;;;;5018415;28;20034;-68
2023/09/26 06:57:20;;;;;;;8.35;2.97;;;;;;;;;;5017430;28;20528;-67
2023/09/26 06:59:52;;;;;;;8.75;2.60;;;;;;;;;;5017929;28;20025;-67
2023/09/26 07:02:20;;;;;;;5.90;2.53;;;;;;;;;;5019030;28;20017;-67
2023/09/26 07:04:52;;;;;;;4.95;2.70;;;;;;;;;;5015632;28;20064;-67
2023/09/26 07:07:18;;;;;;;10.18;2.70;;;;;;;;;;5022079;28;20034;-67
2023/09/26 07:09:44;;;;;;;7.80;2.42;;;;;;;;;;5018239;28;20029;-67
2023/09/26 07:12:10;;;;;;;4.63;2.35;;;;;;;;;;5015486;28;20053;-66
2023/09/26 07:14:37;;;;;;;4.15;2.30;;;;;;;;;;5021661;28;20109;-67
2023/09/26 07:17:03;;;;;;;6.78;2.40;;;;;;;;;;5036001;28;20728;-66
2023/09/26 07:19:32;;;;;;;6.85;2.65;;;;;;;;;;5023323;28;20393;-67
2023/09/26 07:21:58;;;;;;;6.88;2.60;;;;;;;;;;5015708;28;20133;-67
2023/09/26 07:24:25;;;;;;;4.78;2.20;;;;;;;;;;5023557;28;20041;-67
2023/09/26 07:26:51;;;;;;;4.68;2.28;;;;;;;;;;5015574;28;20065;-67
2023/09/26 07:29:17;;;;;;;5.50;2.10;;;;;;;;;;5018511;28;20119;-67
2023/09/26 07:31:44;;;;;;;4.32;2.13;;;;;;;;;;5020390;28;20036;-66
2023/09/26 07:34:10;;;;;;;3.92;2.13;;;;;;;;;;5018153;28;20049;-66
2023/09/26 07:36:36;;;;;;;6.15;2.13;;;;;;;;;;5016446;28;20025;-66
2023/09/26 07:39:06;;;;;;;5.22;2.10;;;;;;;;;;5018082;28;20049;-66
2023/09/26 07:41:32;;;;;;;5.65;2.00;;;;;;;;;;5022906;28;20033;-67
2023/09/26 07:43:58;;;;;;;6.20;2.10;;;;;;;;;;5017262;28;20033;-65
2023/09/26 07:46:25;;;;;;;7.00;2.08;;;;;;;;;;5051367;28;20111;-66
2023/09/26 07:48:51;;;;;;;3.20;1.77;;;;;;;;;;5015558;28;20036;-65
2023/09/26 07:51:17;;;;;;;3.60;2.00;;;;;;;;;;5015032;28;20060;-66
2023/09/26 07:53:43;;;;;;;2.92;1.98;;;;;;;;;;5013484;28;20175;-67
2023/09/26 07:56:10;;;;;;;5.47;2.03;;;;;;;;;;5032019;28;20025;-66
2023/09/26 07:58:36;;;;;;;3.50;1.85;;;;;;;;;;5018951;28;20037;-67
2023/09/26 08:01:06;;;;;;;5.15;1.90;;;;;;;;;;5020247;28;20029;-66
2023/09/26 08:03:33;;;;;;;5.20;2.13;;;;;;;;;;5029639;28;20034;-68
2023/09/26 08:06:00;;;;;;;5.28;1.80;;;;;;;;;;5007824;28;20033;-69
2023/09/26 08:08:26;;;;;;;5.80;2.42;;;;;;;;;;5017605;28;20038;-68
2023/09/26 08:10:52;;;;;;;6.38;2.30;;;;;;;;;;5007062;28;20460;-66
2023/09/26 08:13:18;;;;;;;4.38;1.90;;;;;;;;;;5018062;28;20488;-65
2023/09/26 08:15:46;;;;;;;3.45;2.13;;;;;;;;;;5012314;28;20055;-65
2023/09/26 08:18:12;;;;;;;7.18;2.00;;;;;;;;;;5031469;28;20338;-68
2023/09/26 08:20:38;;;;;;;8.10;3.28;;;;;;;;;;5016230;28;20037;-70
2023/09/26 08:23:05;;;;;;;3.72;2.25;;;;;;;;;;5015072;28;20057;-69
2023/09/26 08:25:34;;;;;;;3.03;2.00;;;;;;;;;;5016620;28;20103;-69
2023/09/26 08:28:01;;;;;;;3.88;2.22;;;;;;;;;;5017340;28;20426;-66
2023/09/26 08:30:28;;;;;;;4.05;2.25;;;;;;;;;;5016062;28;20510;-68
2023/09/26 08:32:54;;;;;;;6.35;2.33;;;;;;;;;;5015731;28;20484;-67
2023/09/26 08:35:20;;;;;;;4.45;2.63;;;;;;;;;;5017446;28;20474;-71
2023/09/26 08:37:46;;;;;;;3.45;1.83;;;;;;;;;;5012991;28;20040;-66
2023/09/26 08:40:12;;;;;;;3.88;1.67;;;;;;;;;;5017611;28;20110;-67
2023/09/26 08:42:45;;;;;;;5.85;2.97;;;;;;;;;;5012306;28;20481;-69
2023/09/26 08:45:12;;;;;;;5.00;2.40;;;;;;;;;;5016653;28;20358;-68
2023/09/26 08:47:39;;;;;;;4.43;2.08;;;;;;;;;;5016377;28;20374;-67
2023/09/26 08:50:06;;;;;;;3.25;1.80;;;;;;;;;;5016346;28;20034;-69
2023/09/26 08:52:33;;;;;;;4.95;1.70;;;;;;;;;;5021528;28;20075;-68
2023/09/26 08:55:00;;;;;;;2.55;1.73;;;;;;;;;;5021526;28;20025;-69
2023/09/26 08:57:26;;;;;;;2.70;1.80;;;;;;;;;;5018466;28;20056;-70
2023/09/26 08:59:54;;;;;;;3.97;2.20;;;;;;;;;;5016493;28;20943;-65
2023/09/26 09:02:20;;;;;;;4.60;1.85;;;;;;;;;;5018395;28;20029;-64
2023/09/26 09:04:46;;;;;;;5.63;1.80;;;;;;;;;;5020046;28;20386;-65
2023/09/26 09:07:13;;;;;;;4.68;1.88;;;;;;;;;;5019297;28;20067;-64
2023/09/26 09:09:59;;;;;;;3.10;2.03;;;;;;;;;;5015914;28;20033;-64
2023/09/26 09:12:26;;;;;;;6.05;2.63;;;;;;;;;;5018648;28;20503;-65
2023/09/26 09:14:52;;;;;;;6.28;2.45;;;;;;;;;;5020317;28;20377;-64
2023/09/26 09:17:18;;;;;;;8.55;2.20;;;;;;;;;;5017427;28;20028;-65
2023/09/26 09:19:48;;;;;;;3.38;2.03;;;;;;;;;;5034134;28;20033;-68
2023/09/26 09:22:15;;;;;;;4.80;2.47;;;;;;;;;;5016347;28;20028;-71
2023/09/26 09:24:42;;;;;;;2.30;1.70;;;;;;;;;;5021929;28;20030;-72
2023/09/26 09:27:08;;;;;;;4.68;2.75;;;;;;;;;;5018369;28;20388;-71
2023/09/26 09:29:35;;;;;;;7.05;2.20;;;;;;;;;;5018614;28;20345;-71
2023/09/26 09:32:01;;;;;;;2.78;2.25;;;;;;;;;;5016809;28;20061;-72
2023/09/26 09:34:27;;;;;;;6.25;2.15;;;;;;;;;;5019045;28;20029;-71
2023/09/26 09:36:56;;;;;;;4.63;2.30;;;;;;;;;;5019862;28;20398;-72
2023/09/26 09:39:23;;;;;;;4.95;1.98;;;;;;;;;;5017673;28;20438;-72
2023/09/26 09:41:49;;;;;;;5.60;1.70;;;;;;;;;;5020984;28;20060;-72
2023/09/26 09:44:15;;;;;;;4.75;2.60;;;;;;;;;;5017305;28;20638;-72
2023/09/26 09:46:43;;;;;;;5.30;2.20;;;;;;;;;;5018611;28;20049;-73
2023/09/26 09:49:14;;;;;;;2.80;1.60;;;;;;;;;;5021658;28;20106;-72
2023/09/26 09:51:45;;;;;;;2.90;2.15;;;;;;;;;;5017018;28;20044;-72
2023/09/26 09:54:17;;;;;;;4.43;2.08;;;;;;;;;;5020313;28;20026;-71
2023/09/26 09:56:46;;;;;;;7.60;2.30;;;;;;;;;;5018896;28;20041;-70
2023/09/26 09:59:14;;;;;;;5.35;2.22;;;;;;;;;;5019675;28;20040;-71
2023/09/26 10:01:44;;;;;;;3.42;1.65;;;;;;;;;;5032555;28;20029;-72
2023/09/26 10:04:10;;;;;;;5.28;1.95;;;;;;;;;;5016181;28;20033;-71
2023/09/26 10:06:38;;;;;;;3.58;2.53;;;;;;;;;;5016180;28;20430;-71
2023/09/26 10:09:04;;;;;;;5.43;1.98;;;;;;;;;;5016854;28;20029;-71
2023/09/26 10:11:31;;;;;;;5.72;2.30;;;;;;;;;;5014133;28;20113;-71
2023/09/26 10:13:58;;;;;;;2.95;2.10;;;;;;;;;;5015979;28;20030;-73
2023/09/26 10:16:25;;;;;;;5.82;2.25;;;;;;;;;;5014604;28;20425;-70
2023/09/26 10:18:51;;;;;;;3.95;1.90;;;;;;;;;;5018337;28;20751;-69
2023/09/26 10:21:21;;;;;;;6.10;2.42;;;;;;;;;;5018861;28;20080;-70
2023/09/26 10:24:05;;;;;;;5.30;2.30;;;;;;;;;;5014497;28;20143;-69
2023/09/26 10:26:33;;;;;;;7.78;2.65;;;;;;;;;;5017688;28;20451;-69
2023/09/26 10:29:12;;;;;;;8.43;2.33;;;;;;;;;;5020591;28;20112;-69
2023/09/26 10:31:53;;;;;;;3.15;2.03;;;;;;;;;;5020849;28;20047;-71
2023/09/26 10:34:19;;;;;;;4.07;2.60;;;;;;;;;;5017665;28;20026;-71
2023/09/26 10:36:45;;;;;;;5.18;2.35;;;;;;;;;;5016408;28;20036;-72
2023/09/26 10:39:12;;;;;;;6.28;2.35;;;;;;;;;;5018714;28;20053;-70
2023/09/26 10:41:39;;;;;;;5.65;2.65;;;;;;;;;;5016906;28;20116;-71
2023/09/26 10:44:05;;;;;;;8.30;3.17;;;;;;;;;;5019425;28;20041;-71
2023/09/26 10:46:31;;;;;;;4.43;2.63;;;;;;;;;;5019445;28;20037;-71
2023/09/26 10:48:57;;;;;;;4.07;1.90;;;;;;;;;;5017078;28;20029;-72
2023/09/26 10:51:24;;;;;;;3.67;2.03;;;;;;;;;;5018077;28;20029;-71
2023/09/26 10:53:50;;;;;;;7.10;2.92;;;;;;;;;;5018097;28;20068;-71
2023/09/26 10:56:16;;;;;;;4.70;2.38;;;;;;;;;;5016630;28;20037;-70
2023/09/26 10:58:42;;;;;;;4.75;2.60;;;;;;;;;;5018183;28;20103;-72
2023/09/26 11:01:08;;;;;;;3.83;2.25;;;;;;;;;;5019022;28;20157;-70
2023/09/26 11:03:35;;;;;;;8.98;2.95;;;;;;;;;;5017956;28;20033;-69
2023/09/26 11:06:01;;;;;;;5.82;2.85;;;;;;;;;;5018267;28;20383;-67
2023/09/26 11:08:28;;;;;;;5.88;2.08;;;;;;;;;;5018132;28;20496;-65
2023/09/26 11:10:54;;;;;;;4.90;2.25;;;;;;;;;;5015498;28;20413;-68
2023/09/26 11:13:24;;;;;;;4.85;2.13;;;;;;;;;;5017445;28;20021;-68
2023/09/26 11:15:53;;;;;;;5.15;2.10;;;;;;;;;;5016562;28;20082;-68
2023/09/26 11:18:20;;;;;;;7.13;2.65;;;;;;;;;;5016651;28;20112;-68
2023/09/26 11:20:46;;;;;;;4.43;2.03;;;;;;;;;;5020157;28;20099;-68
2023/09/26 11:23:12;;;;;;;7.13;2.20;;;;;;;;;;5017821;28;20644;-69
2023/09/26 11:25:51;;;;;;;3.25;1.70;;;;;;;;;;5018387;28;20116;-68
2023/09/26 11:28:18;;;;;;;9.02;2.50;;;;;;;;;;5020228;28;20604;-67
2023/09/26 11:30:44;;;;;;;6.30;2.20;;;;;;;;;;5018679;28;20033;-66
2023/09/26 11:33:10;;;;;;;5.70;2.17;;;;;;;;;;5020416;28;20062;-68
2023/09/26 11:35:36;;;;;;;6.07;2.20;;;;;;;;;;5019183;28;20034;-69
2023/09/26 11:38:04;;;;;;;4.28;2.25;;;;;;;;;;5022697;28;20110;-68
2023/09/26 11:40:32;;;;;;;5.35;1.90;;;;;;;;;;5035788;28;20438;-69
2023/09/26 11:43:00;;;;;;;6.25;2.65;;;;;;;;;;5021834;28;20460;-69
2023/09/26 11:45:27;;;;;;;6.10;2.63;;;;;;;;;;5021033;28;20035;-67
2023/09/26 11:47:54;;;;;;;9.77;2.20;;;;;;;;;;5016288;28;20082;-69
2023/09/26 11:50:21;;;;;;;2.88;1.80;;;;;;;;;;5016062;28;20026;-70
2023/09/26 11:52:50;;;;;;;3.92;1.73;;;;;;;;;;5011944;28;20383;-69
2023/09/26 11:55:17;;;;;;;3.42;1.85;;;;;;;;;;5013289;28;20034;-69
2023/09/26 11:57:44;;;;;;;6.93;2.00;;;;;;;;;;5016504;28;20029;-70
2023/09/26 12:00:15;;;;;;;4.25;1.90;;;;;;;;;;5028887;28;20039;-71
2023/09/26 12:02:43;;;;;;;5.88;2.10;;;;;;;;;;5014153;28;20037;-69
2023/09/26 12:05:11;;;;;;;6.47;2.05;;;;;;;;;;5015855;28;20505;-69
2023/09/26 12:07:37;;;;;;;7.10;2.95;;;;;;;;;;5015752;28;20041;-71
2023/09/26 12:10:04;;;;;;;6.72;2.28;;;;;;;;;;5016849;28;20517;-71
2023/09/26 12:12:30;;;;;;;3.72;2.30;;;;;;;;;;5017862;28;20530;-70
2023/09/26 12:15:15;;;;;;;3.35;2.00;;;;;;;;;;5015800;28;20432;-70
2023/09/26 12:17:41;;;;;;;4.65;2.38;;;;;;;;;;5016672;28;20026;-71
2023/09/26 12:20:09;;;;;;;3.72;1.98;;;;;;;;;;5015185;28;20068;-69
2023/09/26 12:22:35;;;;;;;5.22;1.80;;;;;;;;;;5012972;28;20047;-72
2023/09/26 12:25:01;;;;;;;6.57;2.30;;;;;;;;;;5014967;28;20029;-70
2023/09/26 12:27:28;;;;;;;4.25;2.72;;;;;;;;;;5013088;28;20017;-70
2023/09/26 12:29:54;;;;;;;9.75;2.60;;;;;;;;;;5009215;28;20053;-70
2023/09/26 12:32:20;;;;;;;6.88;2.75;;;;;;;;;;5016166;28;20109;-70
2023/09/26 12:34:46;;;;;;;6.25;2.17;;;;;;;;;;5013641;28;20480;-70
2023/09/26 12:37:12;;;;;;;5.57;1.80;;;;;;;;;;5016597;28;20032;-70
2023/09/26 12:39:38;;;;;;;5.43;2.10;;;;;;;;;;5020534;28;20069;-70
2023/09/26 12:42:04;;;;;;;8.38;2.47;;;;;;;;;;5023820;28;20034;-71
2023/09/26 12:44:34;;;;;;;4.30;2.50;;;;;;;;;;5017801;28;20075;-71
2023/09/26 12:47:00;;;;;;;3.25;1.92;;;;;;;;;;5019934;28;20041;-70
2023/09/26 12:49:26;;;;;;;5.68;2.63;;;;;;;;;;5016108;28;20402;-69
2023/09/26 12:51:53;;;;;;;5.25;2.10;;;;;;;;;;5023049;28;20030;-70
2023/09/26 12:54:21;;;;;;;5.20;2.25;;;;;;;;;;5013162;28;20474;-69
2023/09/26 12:56:48;;;;;;;2.55;1.73;;;;;;;;;;5018471;28;20018;-70
2023/09/26 12:59:14;;;;;;;4.88;2.00;;;;;;;;;;5015935;28;20033;-70
2023/09/26 13:01:40;;;;;;;4.40;2.00;;;;;;;;;;5018927;28;20033;-72
2023/09/26 13:04:06;;;;;;;4.45;1.90;;;;;;;;;;5017965;28;20029;-71
2023/09/26 13:06:33;;;;;;;4.65;2.03;;;;;;;;;;5016049;28;20148;-69
2023/09/26 13:08:59;;;;;;;6.47;2.67;;;;;;;;;;5017302;28;20029;-71
2023/09/26 13:11:25;;;;;;;3.95;1.85;;;;;;;;;;5016416;28;20029;-71
2023/09/26 13:13:51;;;;;;;5.03;1.95;;;;;;;;;;5019229;28;20156;-72
2023/09/26 13:16:18;;;;;;;2.85;1.80;;;;;;;;;;5016441;28;20017;-70
2023/09/26 13:18:44;;;;;;;5.20;1.80;;;;;;;;;;5020879;28;20380;-70
2023/09/26 13:21:11;;;;;;;5.28;1.90;;;;;;;;;;5018900;28;20037;-64
2023/09/26 13:23:39;;;;;;;4.57;2.03;;;;;;;;;;5019613;28;20537;-64
2023/09/26 13:26:05;;;;;;;5.10;1.80;;;;;;;;;;5021993;28;20441;-64
2023/09/26 13:28:31;;;;;;;4.75;2.00;;;;;;;;;;5013926;28;20057;-67
2023/09/26 13:30:57;;;;;;;3.83;2.00;;;;;;;;;;5010836;28;20698;-65
2023/09/26 13:33:24;;;;;;;5.90;2.17;;;;;;;;;;5005544;28;20127;-66
2023/09/26 13:35:50;;;;;;;4.80;1.90;;;;;;;;;;5012715;28;20586;-63
2023/09/26 13:38:16;;;;;;;3.38;1.65;;;;;;;;;;5017909;28;20033;-63
2023/09/26 13:40:44;;;;;;;4.68;2.20;;;;;;;;;;5020296;28;20033;-64
2023/09/26 13:43:11;;;;;;;5.20;1.83;;;;;;;;;;5014656;28;20079;-63
2023/09/26 13:45:37;;;;;;;3.13;2.22;;;;;;;;;;5019328;28;20033;-63
2023/09/26 13:48:03;;;;;;;4.53;1.70;;;;;;;;;;5018423;28;20059;-65
2023/09/26 13:50:30;;;;;;;3.60;1.98;;;;;;;;;;5018271;28;20053;-65
2023/09/26 13:52:56;;;;;;;3.85;1.80;;;;;;;;;;5016357;28;20603;-65
2023/09/26 13:55:22;;;;;;;4.22;1.65;;;;;;;;;;5015796;28;20494;-65
2023/09/26 13:57:51;;;;;;;2.05;1.67;;;;;;;;;;5018300;28;20029;-63
2023/09/26 14:00:17;;;;;;;3.03;1.77;;;;;;;;;;5015612;28;20026;-65
2023/09/26 14:02:43;;;;;;;2.03;1.42;;;;;;;;;;5017540;28;20187;-65
2023/09/26 14:05:10;;;;;;;2.25;1.42;;;;;;;;;;5016666;28;20029;-65
2023/09/26 14:07:36;;;;;;;3.92;1.92;;;;;;;;;;5015028;28;20036;-65
2023/09/26 14:10:02;;;;;;;2.83;1.67;;;;;;;;;;5020552;28;20025;-64
2023/09/26 14:12:28;;;;;;;4.70;1.70;;;;;;;;;;5017422;28;20107;-64
2023/09/26 14:14:54;;;;;;;4.78;1.55;;;;;;;;;;5017670;28;20084;-65
2023/09/26 14:17:20;;;;;;;1.58;1.48;;;;;;;;;;5014949;28;20084;-63
2023/09/26 14:19:46;;;;;;;3.50;1.65;;;;;;;;;;5017604;28;20104;-63
2023/09/26 14:22:12;;;;;;;3.95;1.77;;;;;;;;;;5014341;28;20033;-66
2023/09/26 14:24:38;;;;;;;3.67;2.00;;;;;;;;;;5026011;28;20509;-65
2023/09/26 14:27:05;;;;;;;2.95;1.60;;;;;;;;;;5017408;28;20552;-64
2023/09/26 14:29:33;;;;;;;2.95;1.60;;;;;;;;;;5019317;28;20112;-65
2023/09/26 14:31:59;;;;;;;2.67;1.60;;;;;;;;;;5015798;28;20603;-64
2023/09/26 14:34:25;;;;;;;4.32;1.85;;;;;;;;;;5017902;28;20053;-63
2023/09/26 14:36:51;;;;;;;5.00;1.88;;;;;;;;;;5014554;28;20097;-63